• Join FlightAware (Why Join?)
  • Login
  • US Flag 
02:14PM EDT


 

Airport Tracker/Info


-or-


 

Live Flight TrackerFlight Track Log ✈ SWA568 ✈ 29-Apr-2013 ✈ KMKE - KSEA

Flight Track Log - Related Links

Times and Time Zones

All times are in EDT time to prevent confusion due to time zone crossing. See the SWA568 flight status page for this flight to view local times or setup timezone preferences in your user account.

Time Position Orientation Groundspeed Altitude Reporting Facility
EDT Latitude Longitude Course Direction KTS MPH feet Rate Location/Type
04:27PM 42.9333 -87.9667 270° West 260 299 4,400  Level KMKE
04:29PM 43.0742 -88.0697 332° Northwest 252 290 10,400 2,580 Climbing Minneapolis Center
04:30PM 43.1347 -88.1378 321° Northwest 274 315 13,100 2,520 Climbing Minneapolis Center
04:31PM 43.2069 -88.1997 328° Northwest 297 342 15,600 2,340 Climbing Minneapolis Center
04:32PM 43.3053 -88.2653 334° Northwest 335 386 18,200 2,040 Climbing Chicago Center
04:33PM 43.3964 -88.3203 336° Northwest 353 406 20,200 1,800 Climbing Chicago Center
04:34PM 43.4925 -88.3786 336° Northwest 379 436 22,000 2,040 Climbing Chicago Center
04:35PM 43.5981 -88.4725 327° Northwest 396 456 24,400 2,220 Climbing Chicago Center
04:36PM 43.6542 -88.5933 303° West 379 436 26,700 1,920 Climbing Chicago Center
04:37PM 43.7078 -88.7136 302° West 372 428 28,400 1,380 Climbing Chicago Center
04:38PM 43.7483 -88.8489 293° West 383 441 29,600 720 Climbing Chicago Center
04:39PM 43.7939 -89.0156 291° West 396 456 30,000 180 Climbing Chicago Center
04:40PM 43.8339 -89.1650 290° West 410 472 30,000  Level Chicago Center
04:42PM 43.8728 -89.3142 290° West 413 475 30,000  Level Chicago Center
04:43PM 43.9131 -89.4628 291° West 413 475 30,100 900 Climbing Chicago Center
04:44PM 43.9508 -89.6111 290° West 409 471 31,900 900 Climbing Chicago Center
04:45PM 43.9986 -89.7842 291° West 410 472 32,000  Climbing Chicago Center
04:46PM 44.0358 -89.9314 289° West 406 467 32,000  Level Chicago Center
04:46PM 44.0408 -89.9564 286° West 405 466 32,000  Level Minneapolis Center
04:47PM 44.0853 -90.1303 290° West 408 470 32,000  Level Minneapolis Center
04:48PM 44.1242 -90.2783 290° West 408 470 32,000  Level Minneapolis Center
04:49PM 44.1628 -90.4286 290° West 410 472 32,100 660 Climbing Minneapolis Center
04:50PM 44.2019 -90.5836 289° West 414 476 33,500 1,320 Climbing Minneapolis Center
04:51PM 44.2481 -90.7636 290° West 415 478 35,200 1,200 Climbing Minneapolis Center
04:52PM 44.2844 -90.9103 289° West 409 471 36,000 300 Climbing Minneapolis Center
04:54PM 44.3272 -91.0847 289° West 405 466 36,000  Level Minneapolis Center
04:55PM 44.3708 -91.2603 289° West 401 461 36,000  Level Minneapolis Center
04:56PM 44.4078 -91.4078 289° West 402 463 36,000  Level Minneapolis Center
04:57PM 44.4442 -91.5572 289° West 406 467 36,000  Level Minneapolis Center
04:58PM 44.4806 -91.7083 289° West 410 472 36,000  Level Minneapolis Center
04:59PM 44.5178 -91.8594 289° West 412 474 36,000  Level Minneapolis Center
05:00PM 44.5608 -92.0408 288° West 411 473 36,000  Level Minneapolis Center
05:01PM 44.5969 -92.1933 288° West 414 476 36,000  Level Minneapolis Center
05:02PM 44.6311 -92.3453 288° West 411 473 36,000  Level Minneapolis Center
05:03PM 44.6672 -92.4953 289° West 409 471 36,000  Level Minneapolis Center
05:04PM 44.7017 -92.6461 288° West 407 468 36,000  Level Minneapolis Center
05:05PM 44.7503 -92.8567 288° West 408 470 36,000  Level Minneapolis Center
05:06PM 44.7842 -93.0050 288° West 404 465 36,000  Level Minneapolis Center
05:07PM 44.8158 -93.1422 288° West 403 464 36,000  Level Minneapolis Center
05:08PM 44.8497 -93.2919 288° West 405 466 36,000  Level Minneapolis Center
05:09PM 44.8836 -93.4433 288° West 402 463 36,000  Level Minneapolis Center
05:10PM 44.9225 -93.6217 287° West 400 460 36,000  Level Minneapolis Center
05:11PM 44.9556 -93.7725 287° West 404 465 36,000  Level Minneapolis Center
05:12PM 44.9886 -93.9217 287° West 402 463 36,000 420 Level Minneapolis Center
05:13PM 45.0214 -94.0725 287° West 402 463 36,900 960 Climbing Minneapolis Center
05:14PM 45.0603 -94.2531 287° West 403 464 38,000 480 Climbing Minneapolis Center
05:15PM 45.0922 -94.4031 287° West 400 460 38,000  Level Minneapolis Center
05:17PM 45.1233 -94.5517 287° West 398 458 38,000  Level Minneapolis Center
05:18PM 45.1531 -94.6925 287° West 399 459 38,000  Level Minneapolis Center
05:19PM 45.1969 -94.9033 287° West 401 461 38,000  Level Minneapolis Center
05:20PM 45.2281 -95.0539 286° West 400 460 38,000  Level Minneapolis Center
05:21PM 45.2522 -95.1756 286° West 401 461 38,000  Level Minneapolis Center
05:22PM 45.2889 -95.3556 286° West 400 460 38,000  Level Minneapolis Center
05:23PM 45.3133 -95.4761 286° West 399 459 38,000  Level Minneapolis Center
05:24PM 45.3553 -95.6819 286° West 393 452 38,000  Level Minneapolis Center
05:25PM 45.3833 -95.8283 285° West 388 447 38,000  Level Minneapolis Center
05:26PM 45.4058 -95.9436 286° West 384 442 38,000  Level Minneapolis Center
05:27PM 45.4411 -96.1181 286° West 384 442 38,000  Level Minneapolis Center
05:28PM 45.4692 -96.2647 285° West 386 444 38,000  Level Minneapolis Center
05:29PM 45.4969 -96.4108 285° West 385 443 38,000  Level Minneapolis Center
05:30PM 45.5303 -96.5844 285° West 382 440 38,000  Level Minneapolis Center
05:31PM 45.5578 -96.7275 285° West 379 436 38,000  Level Minneapolis Center
05:32PM 45.5836 -96.8675 285° West 371 427 38,000  Level Minneapolis Center
05:33PM 45.6114 -97.0056 286° West 366 421 38,000  Level Minneapolis Center
05:34PM 45.6375 -97.1442 285° West 364 419 38,000  Level Minneapolis Center
05:35PM 45.6619 -97.2836 284° West 363 418 38,000  Level Minneapolis Center
05:36PM 45.6925 -97.4497 285° West 364 419 38,000  Level Minneapolis Center
05:38PM 45.7183 -97.5928 285° West 372 428 38,000  Level Minneapolis Center
05:39PM 45.7492 -97.7589 285° West 365 420 38,000  Level Minneapolis Center
05:40PM 45.7736 -97.8989 284° West 364 419 38,000  Level Minneapolis Center
05:41PM 45.7983 -98.0400 284° West 366 421 38,000  Level Minneapolis Center
05:42PM 45.8297 -98.2086 285° West 369 425 38,000  Level Minneapolis Center
05:43PM 45.8542 -98.3536 284° West 373 429 38,000  Level Minneapolis Center
05:44PM 45.8836 -98.5239 284° West 370 426 38,000  Level Minneapolis Center
05:45PM 45.9072 -98.6650 284° West 367 422 38,000  Level Minneapolis Center
05:46PM 45.9319 -98.8075 284° West 367 422 38,000  Level Minneapolis Center
05:47PM 45.9553 -98.9492 283° West 367 422 38,000  Level Minneapolis Center
05:48PM 45.9783 -99.0908 283° West 366 421 38,000  Level Minneapolis Center
05:49PM 46.0072 -99.2611 284° West 367 422 38,000  Level Minneapolis Center
05:50PM 46.0294 -99.4022 283° West 365 420 38,000  Level Minneapolis Center
05:51PM 46.0528 -99.5467 283° West 368 423 38,000  Level Minneapolis Center
05:52PM 46.0758 -99.6908 283° West 370 426 38,000  Level Minneapolis Center
05:53PM 46.0994 -99.8361 283° West 374 430 38,000  Level Minneapolis Center
05:54PM 46.1256 -100.0072 282° West 368 423 38,000  Level Minneapolis Center
05:55PM 46.1539 -100.1822 283° West 374 430 38,000  Level Minneapolis Center
05:57PM 46.1756 -100.3225 283° West 362 417 38,000  Level Minneapolis Center
05:58PM 46.1969 -100.4611 283° West 358 412 38,000  Level Minneapolis Center
05:59PM 46.2175 -100.6008 282° West 356 410 38,000  Level Minneapolis Center
06:00PM 46.2389 -100.7408 283° West 358 412 38,000  Level Minneapolis Center
06:01PM 46.2597 -100.8819 282° West 360 414 38,000  Level Minneapolis Center
06:02PM 46.2844 -101.0517 282° West 361 415 38,000  Level Minneapolis Center
06:03PM 46.3050 -101.1914 282° West 358 412 38,000  Level Minneapolis Center
06:04PM 46.3217 -101.3061 282° West 360 414 38,000  Level Minneapolis Center
06:05PM 46.3461 -101.4775 282° West 362 417 38,000  Level Minneapolis Center
06:06PM 46.3672 -101.6225 282° West 365 420 38,000  Level Minneapolis Center
06:07PM 46.3881 -101.7703 282° West 369 425 38,000  Level Minneapolis Center
06:08PM 46.4078 -101.9181 281° West 372 428 38,000 -60 Level Minneapolis Center
06:09PM 46.4364 -102.0928 283° West 376 433 37,900  Descending Minneapolis Center
06:10PM 46.4569 -102.2411 281° West 377 434 38,000  Climbing Minneapolis Center
06:11PM 46.4808 -102.4172 281° West 375 432 38,000  Level Minneapolis Center
06:12PM 46.4997 -102.5661 280° West 373 429 38,000  Level Minneapolis Center
06:13PM 46.5192 -102.7139 281° West 374 430 38,000  Level Minneapolis Center
06:14PM 46.5378 -102.8606 281° West 372 428 38,000  Level Minneapolis Center
06:15PM 46.5569 -103.0067 281° West 371 427 38,000  Level Minneapolis Center
06:16PM 46.5728 -103.1547 279° West 370 426 38,000  Level Salt Lake Center
06:17PM 46.5919 -103.2997 281° West 370 426 38,000  Level Salt Lake Center
06:18PM 46.6108 -103.4458 281° West 368 423 38,000  Level Salt Lake Center
06:19PM 46.6317 -103.6236 280° West 370 426 38,000  Level Salt Lake Center
06:20PM 46.6494 -103.7731 280° West 371 427 38,000  Level Salt Lake Center
06:21PM 46.6686 -103.9228 281° West 373 429 38,000  Level Salt Lake Center
06:22PM 46.6861 -104.0758 280° West 379 436 38,000  Level Salt Lake Center
06:23PM 46.7047 -104.2322 280° West 386 444 38,000  Level Salt Lake Center
06:24PM 46.7214 -104.3861 279° West 386 444 38,000 -60 Level Salt Lake Center
06:25PM 46.7386 -104.5419 279° West 388 447 37,900  Descending Salt Lake Center
06:27PM 46.7567 -104.6981 280° West 389 448 38,000  Climbing Salt Lake Center
06:28PM 46.7739 -104.8528 279° West 388 447 38,000  Level Salt Lake Center
06:29PM 46.7958 -105.0372 280° West 385 443 38,000  Level Salt Lake Center
06:30PM 46.8103 -105.1858 278° West 378 435 38,000  Level Salt Lake Center
06:31PM 46.8278 -105.3347 280° West 373 429 38,000  Level Salt Lake Center
06:32PM 46.8425 -105.4844 278° West 374 430 38,000  Level Salt Lake Center
06:33PM 46.8589 -105.6392 279° West 376 433 38,000  Level Salt Lake Center
06:34PM 46.8778 -105.8106 279° West 379 436 38,000  Level Salt Lake Center
06:35PM 46.8914 -105.9408 279° West 380 437 38,000  Level Salt Lake Center
06:36PM 46.9067 -106.0928 278° West 379 436 38,000  Level Salt Lake Center
06:37PM 46.9242 -106.2758 278° West 380 437 38,000  Level Salt Lake Center
06:38PM 46.9392 -106.4172 279° West 379 436 38,000  Level Salt Lake Center
06:39PM 46.9558 -106.5861 278° West 376 433 38,000  Level Salt Lake Center
06:40PM 46.9689 -106.7325 277° West 378 435 38,000  Level Salt Lake Center
06:41PM 46.9853 -106.9003 278° West 375 432 38,000  Level Salt Lake Center
06:42PM 46.9981 -107.0431 278° West 371 427 38,000  Level Salt Lake Center
06:43PM 47.0108 -107.1894 277° West 377 434 38,000  Level Salt Lake Center
06:44PM 47.0286 -107.3839 278° West 377 434 38,000  Level Salt Lake Center
06:45PM 47.0411 -107.5322 277° West 383 441 38,000  Level Salt Lake Center
06:46PM 47.0567 -107.7047 278° West 383 441 38,000  Level Salt Lake Center
06:47PM 47.0703 -107.8544 278° West 386 444 38,000  Level Salt Lake Center
06:48PM 47.0842 -108.0267 277° West 384 442 38,000  Level Salt Lake Center
06:49PM 47.0958 -108.1769 277° West 386 444 38,000  Level Salt Lake Center
06:50PM 47.1097 -108.3506 277° West 385 443 38,000  Level Salt Lake Center
06:51PM 47.1217 -108.5003 277° West 385 443 38,000  Level Salt Lake Center
06:52PM 47.1319 -108.6464 276° West 380 437 38,000  Level Salt Lake Center
06:53PM 47.1450 -108.8169 276° West 377 434 38,000  Level Salt Lake Center
06:54PM 47.1569 -108.9614 277° West 375 432 38,000  Level Salt Lake Center
06:55PM 47.1672 -109.1092 276° West 384 442 38,000  Level Salt Lake Center
06:56PM 47.1792 -109.2689 276° West 391 450 38,000  Level Salt Lake Center
06:57PM 47.1942 -109.4583 277° West 390 449 38,000  Level Salt Lake Center
06:58PM 47.2033 -109.6158 275° West 389 448 38,000  Level Salt Lake Center
06:59PM 47.2139 -109.7686 276° West 381 438 38,000  Level Salt Lake Center
07:01PM 47.2244 -109.9197 276° West 376 433 38,000  Level Salt Lake Center
07:02PM 47.2333 -110.0747 275° West 378 435 38,000  Level Salt Lake Center
07:03PM 47.2439 -110.2319 276° West 383 441 38,000  Level Salt Lake Center
07:04PM 47.2533 -110.3886 275° West 385 443 38,000 -60 Level Salt Lake Center
07:05PM 47.2631 -110.5453 275° West 385 443 37,900  Descending Salt Lake Center
07:06PM 47.2728 -110.7025 275° West 385 443 38,000  Climbing Salt Lake Center
07:07PM 47.2831 -110.8911 275° West 385 443 37,900  Descending Salt Lake Center
07:08PM 47.2925 -111.0483 275° West 385 443 38,000  Climbing Salt Lake Center
07:09PM 47.3003 -111.2064 274° West 386 444 38,000  Level Salt Lake Center
07:10PM 47.3092 -111.3661 275° West 388 447 38,000  Level Salt Lake Center
07:11PM 47.3181 -111.5261 275° West 388 447 38,000  Level Salt Lake Center
07:12PM 47.3258 -111.6842 274° West 386 444 38,000  Level Salt Lake Center
07:13PM 47.3336 -111.8403 274° West 384 442 38,000 -60 Level Salt Lake Center
07:14PM 47.3408 -111.9953 274° West 379 436 37,900  Descending Salt Lake Center
07:15PM 47.3489 -112.1503 274° West 379 436 38,000  Climbing Salt Lake Center
07:16PM 47.3561 -112.3075 274° West 384 442 38,000  Level Salt Lake Center
07:17PM 47.3617 -112.4656 273° West 386 444 38,000  Level Salt Lake Center
07:18PM 47.3697 -112.6558 274° West 389 448 38,000  Level Salt Lake Center
07:19PM 47.3772 -112.8150 274° West 392 451 38,000  Level Salt Lake Center
07:20PM 47.3833 -112.9753 273° West 396 456 38,000  Level Salt Lake Center
07:21PM 47.3894 -113.1367 273° West 395 455 38,000 -60 Level Salt Lake Center
07:22PM 47.3967 -113.2981 274° West 394 453 37,900  Descending Salt Lake Center
07:23PM 47.4014 -113.4550 273° West 385 443 38,000  Climbing Salt Lake Center
07:24PM 47.4072 -113.6133 273° West 387 445 38,000 -60 Level Salt Lake Center
07:25PM 47.4119 -113.7769 273° West 396 456 37,900  Descending Salt Lake Center
07:26PM 47.4167 -113.9386 273° West 394 453 38,000  Climbing Salt Lake Center
07:27PM 47.4217 -114.0983 273° West 391 450 38,000  Level Salt Lake Center
07:28PM 47.4281 -114.2869 273° West 383 441 38,000  Level Salt Lake Center
07:29PM 47.4314 -114.4436 272° West 381 438 38,000 -60 Level Salt Lake Center
07:30PM 47.4356 -114.6025 272° West 387 445 37,900  Descending Salt Lake Center
07:31PM 47.4392 -114.6964 273° West 381 438 38,000 60 Climbing Seattle Center
07:32PM 47.4419 -114.8536 272° West 382 440 38,000  Level Seattle Center
07:33PM 47.4456 -115.0114 272° West 383 441 38,000  Level Seattle Center
07:34PM 47.4492 -115.1692 272° West 384 442 38,000  Level Seattle Center
07:35PM 47.4522 -115.3269 272° West 385 443 38,000  Level Seattle Center
07:36PM 47.4542 -115.4847 271° West 384 442 38,000  Level Seattle Center
07:37PM 47.4578 -115.6425 272° West 384 442 38,000  Level Seattle Center
07:38PM 47.4669 -115.8236 274° West 384 442 38,000  Level Seattle Center
07:39PM 47.4769 -115.9739 276° West 373 429 38,000  Level Seattle Center
07:40PM 47.4861 -116.1281 275° West 376 433 38,000  Level Seattle Center
07:41PM 47.4942 -116.2806 275° West 375 432 38,000  Level Seattle Center
07:42PM 47.5036 -116.4358 275° West 379 436 38,000  Level Seattle Center
07:43PM 47.5125 -116.5900 275° West 378 435 38,000  Level Seattle Center
07:44PM 47.5208 -116.7453 275° West 380 437 38,000 -60 Level Seattle Center
07:45PM 47.5297 -116.9000 275° West 379 436 37,900  Descending Seattle Center
07:46PM 47.5375 -117.0564 274° West 376 433 38,000  Climbing Seattle Center
07:47PM 47.5450 -117.2142 274° West 367 422 37,900  Descending Seattle Center
07:48PM 47.5519 -117.3644 274° West 365 420 38,000  Climbing Seattle Center
07:49PM 47.5594 -117.5153 274° West 366 421 38,000  Level Seattle Center
07:50PM 47.5672 -117.6631 275° West 363 418 38,000  Level Seattle Center
07:51PM 47.5825 -117.8114 279° West 364 419 38,000  Level Seattle Center
07:52PM 47.5967 -117.9583 278° West 360 414 38,000  Level Seattle Center
07:53PM 47.6092 -118.1033 277° West 356 410 38,000  Level Seattle Center
07:54PM 47.6222 -118.2492 278° West 359 413 38,000  Level Seattle Center
07:55PM 47.6358 -118.3933 278° West 355 409 38,000  Level Seattle Center
07:56PM 47.6489 -118.5372 278° West 354 407 38,000 -660 Level Seattle Center
07:57PM 47.6644 -118.7144 277° West 363 418 36,700 -1,140 Descending Seattle Center
07:58PM 47.6764 -118.8608 277° West 360 414 35,800 -960 Descending Seattle Center
07:59PM 47.6894 -119.0072 278° West 360 414 34,800 -960 Descending Seattle Center
08:00PM 47.7014 -119.1492 277° West 349 402 33,900 -900 Descending Seattle Center
08:01PM 47.7136 -119.2956 277° West 356 410 33,000 -960 Descending Seattle Center
08:02PM 47.7247 -119.4394 277° West 353 406 32,000 -1,080 Descending Seattle Center
08:03PM 47.7361 -119.5806 277° West 347 399 30,900 -1,020 Descending Seattle Center
08:04PM 47.7478 -119.7217 277° West 347 399 30,000 -480 Descending Seattle Center
08:05PM 47.7583 -119.8619 276° West 344 396 30,000  Level Seattle Center
08:06PM 47.7672 -120.0019 275° West 342 394 30,000  Level Seattle Center
08:07PM 47.7794 -120.1386 278° West 335 386 30,000  Level Seattle Center
08:08PM 47.7886 -120.2739 276° West 332 382 30,000  Level Seattle Center
08:09PM 47.7986 -120.4106 276° West 333 383 30,000  Level Seattle Center
08:10PM 47.8081 -120.5483 276° West 334 384 30,000 -1,380 Level Seattle Center
08:11PM 47.8200 -120.7108 276° West 330 380 27,300 -2,520 Descending Seattle Center
08:12PM 47.8294 -120.8444 276° West 326 375 24,900 -2,160 Descending Seattle Center
08:13PM 47.8381 -120.9564 277° West 313 360 23,000 -2,100 Descending Seattle Center
08:14PM 47.8461 -121.0892 275° West 324 373 20,700 -2,220 Descending Seattle Center
08:16PM 47.8564 -121.2203 277° West 322 371 18,600 -2,220 Descending Seattle Center
08:16PM 47.8647 -121.3394 276° West 305 351 16,900 -2,220 Descending Seattle Center
08:17PM 47.8644 -121.3678 269° West 297 342 16,400 -1,980 Descending Seattle Center
08:18PM 47.8722 -121.4853 276° West 291 335 14,300 -1,920 Descending Seattle Center
08:19PM 47.8831 -121.6242 277° West 291 335 12,400 -1,140 Descending Seattle Center
08:20PM 47.8761 -121.7153 264° West 277 319 12,000 -780 Descending Seattle Center
08:21PM 47.8328 -121.8028 234° Southwest 268 308 11,000 -1,320 Descending Seattle Center
08:21PM 47.8214 -121.8444 248° West 265 305 10,300 -1,500 Descending Seattle Center
08:22PM 47.8031 -121.9036 245° Southwest 269 310 9,500 -1,500 Descending Seattle Center
08:22PM 47.7914 -121.9442 247° West 262 302 8,800 -1,620 Descending Seattle Center
08:23PM 47.7750 -122.0000 246° West 260 299 7,900 -1,680 Descending Seattle Center
08:24PM 47.7367 -122.1136 243° Southwest 257 296 5,900 -2,100 Descending Seattle Center
08:24PM 47.7261 -122.1425 241° Southwest 257 296 5,200 -1,800 Descending Seattle Center
08:25PM 47.6989 -122.2053 237° Southwest 261 300 4,100 -1,080 Descending Seattle Center
08:25PM 47.6864 -122.2403 242° Southwest 260 299 4,000 -120 Descending Seattle Center
08:26PM 47.6656 -122.2883 237° Southwest 237 273 4,000 60 Level Seattle Center
08:26PM 47.6553 -122.3103 235° Southwest 214 246 4,100 -240 Climbing Seattle Center
08:27PM 47.6153 -122.3097 179° South 214 246 3,800 -420 Descending Seattle Center
08:27PM 47.5972 -122.3094 179° South 198 228 3,700 -1,020 Descending Seattle Center
08:28PM 47.5614 -122.3108 181° South 195 224 2,800 -1,380 Descending Seattle Center
08:28PM 47.5467 -122.3111 181° South 184 212 2,300 -1,200 Descending Seattle Center
08:29PM 47.5119 -122.3111 180° South 181 208 1,600 -1,020 Descending Seattle Center
08:29PM 47.4933 -122.3111 180° South 145 167 1,200 -900 Descending Seattle Center
08:30PM 47.4742 -122.3111 180° South 138 159 700 -540 Descending Seattle Center
08:31PM 47.4389 -122.3136 183° South 133 153 400 -300 Descending Seattle Center